Time;durP1;ratioP1;P1;durP2;ratioP2;P2;SDS_P1;SDS_P2;PMS_P1;PMS_P2;Temp;Humidity;BMP_temperature;BMP_pressure;BME280_temperature;BME280_humidity;BME280_pressure;Samples;Min_cycle;Max_cycle;Signal;HPM_P1;HPM_P2
2022/10/12 00:00:31;;;;;;;8.93;5.13;;;;;;;;;;5030074;28;20721;-68
2022/10/12 00:02:56;;;;;;;12.10;5.30;;;;;;;;;;5029458;28;20198;-68
2022/10/12 00:05:21;;;;;;;7.73;4.70;;;;;;;;;;5037905;28;20588;-68
2022/10/12 00:07:47;;;;;;;9.80;6.10;;;;;;;;;;5038201;28;20600;-68
2022/10/12 00:10:12;;;;;;;7.87;5.33;;;;;;;;;;5038867;28;20260;-68
2022/10/12 00:12:38;;;;;;;12.33;5.40;;;;;;;;;;5037693;28;20182;-68
2022/10/12 00:15:04;;;;;;;10.47;5.90;;;;;;;;;;5036484;28;20310;-68
2022/10/12 00:17:29;;;;;;;11.40;5.57;;;;;;;;;;5039419;28;20657;-67
2022/10/12 00:19:54;;;;;;;9.30;5.23;;;;;;;;;;5031127;28;20829;-68
2022/10/12 00:22:19;;;;;;;8.37;5.23;;;;;;;;;;5032162;28;20186;-69
2022/10/12 00:24:45;;;;;;;7.60;4.90;;;;;;;;;;5041962;28;20198;-68
2022/10/12 00:27:10;;;;;;;11.53;6.03;;;;;;;;;;5042894;28;20594;-68
2022/10/12 00:29:36;;;;;;;7.93;4.97;;;;;;;;;;5039434;28;20263;-68
2022/10/12 00:32:01;;;;;;;7.93;4.37;;;;;;;;;;5033621;28;20234;-68
2022/10/12 00:34:26;;;;;;;10.10;5.13;;;;;;;;;;5032181;28;20290;-68
2022/10/12 00:36:54;;;;;;;10.97;4.77;;;;;;;;;;5038616;28;20588;-68
2022/10/12 00:39:20;;;;;;;10.37;4.87;;;;;;;;;;5041111;28;20242;-68
2022/10/12 00:41:45;;;;;;;9.47;4.20;;;;;;;;;;5040397;28;20591;-68
2022/10/12 00:44:35;;;;;;;10.00;4.27;;;;;;;;;;5036335;28;20240;-68
2022/10/12 00:47:07;;;;;;;6.60;4.00;;;;;;;;;;5039187;28;20186;-67
2022/10/12 00:49:33;;;;;;;8.53;4.10;;;;;;;;;;5034764;28;20189;-67
2022/10/12 00:52:03;;;;;;;9.47;4.20;;;;;;;;;;5033847;28;20231;-67
2022/10/12 00:54:35;;;;;;;11.57;4.27;;;;;;;;;;5039128;28;20188;-67
2022/10/12 00:57:03;;;;;;;6.90;3.93;;;;;;;;;;5034159;28;20655;-67
2022/10/12 00:59:55;;;;;;;8.67;4.50;;;;;;;;;;5041606;28;20257;-67
2022/10/12 01:02:23;;;;;;;9.13;4.33;;;;;;;;;;5034109;28;20186;-68
2022/10/12 01:04:49;;;;;;;8.87;3.80;;;;;;;;;;5038967;28;20228;-68
2022/10/12 01:07:14;;;;;;;7.30;3.90;;;;;;;;;;5037441;28;20202;-68
2022/10/12 01:09:40;;;;;;;6.27;4.30;;;;;;;;;;5040577;28;20178;-68
2022/10/12 01:12:06;;;;;;;6.27;3.30;;;;;;;;;;5032121;28;20190;-68
2022/10/12 01:14:32;;;;;;;6.07;3.57;;;;;;;;;;5036959;28;20208;-68
2022/10/12 01:17:24;;;;;;;4.97;3.63;;;;;;;;;;5032964;28;20221;-68
2022/10/12 01:20:14;;;;;;;5.27;3.30;;;;;;;;;;5031402;28;20194;-68
2022/10/12 01:22:47;;;;;;;4.87;3.40;;;;;;;;;;5042743;28;20232;-68
2022/10/12 01:25:40;;;;;;;6.90;3.30;;;;;;;;;;5040774;28;20727;-68
2022/10/12 01:28:38;;;;;;;5.23;3.30;;;;;;;;;;5036077;28;20265;-69
2022/10/12 01:31:26;;;;;;;4.70;3.10;;;;;;;;;;5038316;28;20693;-68
2022/10/12 01:33:58;;;;;;;5.00;3.17;;;;;;;;;;5041619;28;20182;-68
2022/10/12 01:36:41;;;;;;;4.77;3.13;;;;;;;;;;5030724;28;20178;-68
2022/10/12 01:39:42;;;;;;;4.83;3.17;;;;;;;;;;5034422;28;20205;-68
2022/10/12 01:42:12;;;;;;;7.23;3.10;;;;;;;;;;5030732;28;20660;-68
2022/10/12 01:44:37;;;;;;;6.50;4.10;;;;;;;;;;5040324;28;20222;-68
2022/10/12 01:47:03;;;;;;;5.83;3.60;;;;;;;;;;5043643;28;20273;-68
2022/10/12 01:49:32;;;;;;;5.87;3.27;;;;;;;;;;5038808;28;20251;-68
2022/10/12 01:52:03;;;;;;;7.20;3.60;;;;;;;;;;5039291;28;20197;-68
2022/10/12 01:54:55;;;;;;;8.63;3.97;;;;;;;;;;5036618;28;20662;-68
2022/10/12 01:57:58;;;;;;;8.70;3.90;;;;;;;;;;5034203;28;20194;-68
2022/10/12 02:00:24;;;;;;;8.40;3.70;;;;;;;;;;5033376;28;20261;-68
2022/10/12 02:03:08;;;;;;;6.93;3.90;;;;;;;;;;5036492;28;20560;-68
2022/10/12 02:05:33;;;;;;;9.73;3.80;;;;;;;;;;5040054;28;20497;-68
2022/10/12 02:08:16;;;;;;;9.33;3.80;;;;;;;;;;5037562;28;20221;-68
2022/10/12 02:10:48;;;;;;;5.70;3.90;;;;;;;;;;5037506;28;20542;-68
2022/10/12 02:13:18;;;;;;;8.77;3.70;;;;;;;;;;5043571;28;20201;-68
2022/10/12 02:15:44;;;;;;;7.97;4.00;;;;;;;;;;5037749;28;20503;-68
2022/10/12 02:18:14;;;;;;;8.43;3.67;;;;;;;;;;5032103;28;20250;-68
2022/10/12 02:20:41;;;;;;;7.03;3.57;;;;;;;;;;5041307;28;20181;-68
2022/10/12 02:23:08;;;;;;;11.67;3.73;;;;;;;;;;5034655;28;20389;-68
2022/10/12 02:25:34;;;;;;;8.67;4.20;;;;;;;;;;5031174;28;20210;-69
2022/10/12 02:28:06;;;;;;;8.80;4.43;;;;;;;;;;5043293;28;20224;-68
2022/10/12 02:30:36;;;;;;;8.73;4.33;;;;;;;;;;5036352;28;20222;-68
2022/10/12 02:33:07;;;;;;;11.27;4.90;;;;;;;;;;5035651;28;20297;-68
2022/10/12 02:35:38;;;;;;;10.43;4.27;;;;;;;;;;5034072;28;20204;-69
2022/10/12 02:38:15;;;;;;;11.10;4.40;;;;;;;;;;5035888;28;20186;-68
2022/10/12 02:40:55;;;;;;;10.10;4.10;;;;;;;;;;5040003;28;20185;-69
2022/10/12 02:43:27;;;;;;;8.10;4.47;;;;;;;;;;5040593;28;20735;-68
2022/10/12 02:45:53;;;;;;;6.80;4.37;;;;;;;;;;5033996;28;20248;-68
2022/10/12 02:48:22;;;;;;;9.87;4.20;;;;;;;;;;5032648;28;20244;-68
2022/10/12 02:50:50;;;;;;;8.27;4.20;;;;;;;;;;5036596;28;20209;-68
2022/10/12 02:53:16;;;;;;;10.87;4.60;;;;;;;;;;5034498;28;20729;-68
2022/10/12 02:55:52;;;;;;;9.30;3.90;;;;;;;;;;5028823;28;20178;-68
2022/10/12 02:58:18;;;;;;;9.60;4.17;;;;;;;;;;5037933;28;20192;-68
2022/10/12 03:00:44;;;;;;;6.87;4.50;;;;;;;;;;5035342;28;20181;-69
2022/10/12 03:03:10;;;;;;;8.83;5.10;;;;;;;;;;5032594;28;20209;-69
2022/10/12 03:05:35;;;;;;;8.83;4.70;;;;;;;;;;5039207;28;20182;-68
2022/10/12 03:08:00;;;;;;;14.20;4.90;;;;;;;;;;5037241;28;20185;-68
2022/10/12 03:10:26;;;;;;;12.73;4.67;;;;;;;;;;5032721;28;20474;-68
2022/10/12 03:12:52;;;;;;;8.47;4.57;;;;;;;;;;5036571;28;20185;-68
2022/10/12 03:15:17;;;;;;;13.80;5.07;;;;;;;;;;5030438;28;20257;-68
2022/10/12 03:17:43;;;;;;;9.17;4.97;;;;;;;;;;5037164;28;20616;-70
2022/10/12 03:20:09;;;;;;;8.90;4.23;;;;;;;;;;5034301;28;20257;-68
2022/10/12 03:22:34;;;;;;;11.73;5.00;;;;;;;;;;5036985;28;20208;-69
2022/10/12 03:25:00;;;;;;;11.33;4.80;;;;;;;;;;5027529;28;20194;-69
2022/10/12 03:27:25;;;;;;;10.57;4.90;;;;;;;;;;5035289;28;20589;-68
2022/10/12 03:29:51;;;;;;;8.40;4.27;;;;;;;;;;5037344;28;20193;-68
2022/10/12 03:32:16;;;;;;;7.40;4.30;;;;;;;;;;5035814;28;20461;-68
2022/10/12 03:34:42;;;;;;;9.30;4.83;;;;;;;;;;5040409;28;20178;-68
2022/10/12 03:37:07;;;;;;;7.30;4.37;;;;;;;;;;5030373;28;20645;-68
2022/10/12 03:39:32;;;;;;;6.93;4.30;;;;;;;;;;5041138;28;20547;-69
2022/10/12 03:41:57;;;;;;;8.83;4.57;;;;;;;;;;5036915;28;20177;-68
2022/10/12 03:44:23;;;;;;;8.87;4.10;;;;;;;;;;5035926;28;20205;-69
2022/10/12 03:46:48;;;;;;;8.50;4.33;;;;;;;;;;5039105;28;20182;-68
2022/10/12 03:49:13;;;;;;;15.07;5.13;;;;;;;;;;5035694;28;20182;-68
2022/10/12 03:51:39;;;;;;;9.33;4.60;;;;;;;;;;5035852;28;20378;-68
2022/10/12 03:54:04;;;;;;;8.37;4.90;;;;;;;;;;5037579;28;20182;-68
2022/10/12 03:56:29;;;;;;;10.50;4.87;;;;;;;;;;5041997;28;20181;-68
2022/10/12 03:58:55;;;;;;;11.10;5.07;;;;;;;;;;5043261;28;20347;-69
2022/10/12 04:01:20;;;;;;;7.60;4.47;;;;;;;;;;5036902;28;20244;-69
2022/10/12 04:03:45;;;;;;;8.90;4.93;;;;;;;;;;5042791;28;20190;-68
2022/10/12 04:06:11;;;;;;;8.00;4.60;;;;;;;;;;5040938;28;20182;-68
2022/10/12 04:08:36;;;;;;;12.00;5.07;;;;;;;;;;5036645;28;20210;-69
2022/10/12 04:11:01;;;;;;;7.37;4.67;;;;;;;;;;5032073;28;20186;-68
2022/10/12 04:13:27;;;;;;;9.63;4.70;;;;;;;;;;5037496;28;20455;-68
2022/10/12 04:15:52;;;;;;;8.77;4.50;;;;;;;;;;5039200;28;20194;-68
2022/10/12 04:18:17;;;;;;;9.47;4.10;;;;;;;;;;5038432;28;20177;-68
2022/10/12 04:20:46;;;;;;;9.43;4.57;;;;;;;;;;5038024;28;20184;-68
2022/10/12 04:23:12;;;;;;;9.27;4.47;;;;;;;;;;5039779;28;20186;-68
2022/10/12 04:25:38;;;;;;;5.13;3.90;;;;;;;;;;5039627;28;20216;-68
2022/10/12 04:28:03;;;;;;;16.87;5.53;;;;;;;;;;5035990;28;20256;-68
2022/10/12 04:30:28;;;;;;;9.00;4.77;;;;;;;;;;5035469;28;20214;-68
2022/10/12 04:32:54;;;;;;;7.83;5.00;;;;;;;;;;5032243;28;20240;-69
2022/10/12 04:35:19;;;;;;;7.57;4.53;;;;;;;;;;5049651;28;20182;-69
2022/10/12 04:37:45;;;;;;;10.07;4.60;;;;;;;;;;5037653;28;20186;-69
2022/10/12 04:40:10;;;;;;;10.53;4.47;;;;;;;;;;5031581;28;20182;-68
2022/10/12 04:42:36;;;;;;;7.73;4.57;;;;;;;;;;5031820;28;20211;-68
2022/10/12 04:45:01;;;;;;;8.10;4.87;;;;;;;;;;5033284;28;20202;-69
2022/10/12 04:47:26;;;;;;;12.13;5.43;;;;;;;;;;5033206;28;20620;-68
2022/10/12 04:49:52;;;;;;;7.77;4.70;;;;;;;;;;5034050;28;20194;-68
2022/10/12 04:52:17;;;;;;;9.10;5.57;;;;;;;;;;5032006;28;20224;-68
2022/10/12 04:54:42;;;;;;;11.43;4.67;;;;;;;;;;5037048;28;20228;-68
2022/10/12 04:57:08;;;;;;;7.07;4.37;;;;;;;;;;5033975;28;20212;-68
2022/10/12 04:59:33;;;;;;;11.30;4.80;;;;;;;;;;5040118;28;20228;-68
2022/10/12 05:01:58;;;;;;;11.20;4.57;;;;;;;;;;5032877;28;20213;-68
2022/10/12 05:04:24;;;;;;;11.97;5.33;;;;;;;;;;5033321;28;20201;-68
2022/10/12 05:06:49;;;;;;;12.37;5.63;;;;;;;;;;5042000;28;20181;-68
2022/10/12 05:09:15;;;;;;;11.77;5.53;;;;;;;;;;5034862;28;20253;-68
2022/10/12 05:11:40;;;;;;;11.37;5.13;;;;;;;;;;5032308;28;20304;-68
2022/10/12 05:14:05;;;;;;;13.47;5.87;;;;;;;;;;5037110;28;20171;-68
2022/10/12 05:16:31;;;;;;;16.03;5.43;;;;;;;;;;5035596;28;20181;-68
2022/10/12 05:18:56;;;;;;;10.67;5.23;;;;;;;;;;5036535;28;20266;-70
2022/10/12 05:21:21;;;;;;;16.57;6.00;;;;;;;;;;5039294;28;20181;-68
2022/10/12 05:23:50;;;;;;;8.43;5.53;;;;;;;;;;5037503;28;20717;-68
2022/10/12 05:26:16;;;;;;;13.50;5.13;;;;;;;;;;5036873;28;20289;-68
2022/10/12 05:28:41;;;;;;;10.63;5.07;;;;;;;;;;5030592;28;20265;-68
2022/10/12 05:31:07;;;;;;;8.50;5.10;;;;;;;;;;5038219;28;20635;-68
2022/10/12 05:33:32;;;;;;;8.73;5.73;;;;;;;;;;5040976;28;20664;-68
2022/10/12 05:35:58;;;;;;;11.23;5.57;;;;;;;;;;5031773;28;20190;-68
2022/10/12 05:38:23;;;;;;;13.40;6.07;;;;;;;;;;5037864;28;20231;-68
2022/10/12 05:40:48;;;;;;;7.33;5.27;;;;;;;;;;5037372;28;20227;-68
2022/10/12 05:43:14;;;;;;;9.97;6.43;;;;;;;;;;5037011;28;20209;-68
2022/10/12 05:45:39;;;;;;;12.63;6.17;;;;;;;;;;5035711;28;20186;-68
2022/10/12 05:48:05;;;;;;;9.67;5.33;;;;;;;;;;5036035;28;20182;-68
2022/10/12 05:50:30;;;;;;;9.20;5.57;;;;;;;;;;5030667;28;20224;-68
2022/10/12 05:52:56;;;;;;;9.50;5.10;;;;;;;;;;5030205;28;20178;-70
2022/10/12 05:55:21;;;;;;;10.43;5.60;;;;;;;;;;5034560;28;20608;-68
2022/10/12 05:57:48;;;;;;;15.53;6.00;;;;;;;;;;5030607;28;20621;-69
2022/10/12 06:00:14;;;;;;;14.87;5.67;;;;;;;;;;5029476;28;20186;-68
2022/10/12 06:02:39;;;;;;;12.57;5.50;;;;;;;;;;5033265;28;20178;-68
2022/10/12 06:05:05;;;;;;;14.77;5.80;;;;;;;;;;5032808;28;20210;-68
2022/10/12 06:07:30;;;;;;;11.57;5.20;;;;;;;;;;5035381;28;20190;-68
2022/10/12 06:09:55;;;;;;;10.53;6.20;;;;;;;;;;5031708;28;20183;-68
2022/10/12 06:12:22;;;;;;;13.10;6.37;;;;;;;;;;5027910;28;20339;-68
2022/10/12 06:14:48;;;;;;;11.60;6.23;;;;;;;;;;5030719;28;20181;-69
2022/10/12 06:17:14;;;;;;;11.33;5.87;;;;;;;;;;5035149;28;20174;-68
2022/10/12 06:19:39;;;;;;;12.27;6.20;;;;;;;;;;5031602;28;20653;-68
2022/10/12 06:22:04;;;;;;;10.50;5.73;;;;;;;;;;5039560;28;20223;-68
2022/10/12 06:24:30;;;;;;;12.23;6.27;;;;;;;;;;5031638;28;20372;-68
2022/10/12 06:26:55;;;;;;;12.43;6.10;;;;;;;;;;5036228;28;20733;-68
2022/10/12 06:29:23;;;;;;;13.73;6.50;;;;;;;;;;5034632;28;20835;-68
2022/10/12 06:31:49;;;;;;;11.47;5.50;;;;;;;;;;5029906;28;20214;-68
2022/10/12 06:34:15;;;;;;;14.03;6.20;;;;;;;;;;5034602;28;20184;-68
2022/10/12 06:36:40;;;;;;;14.60;8.47;;;;;;;;;;5030771;28;20441;-70
2022/10/12 06:39:06;;;;;;;14.20;7.30;;;;;;;;;;5029763;28;20273;-68
2022/10/12 06:41:31;;;;;;;10.57;6.53;;;;;;;;;;5037724;28;20265;-68
2022/10/12 06:43:57;;;;;;;11.47;6.23;;;;;;;;;;5031784;28;20220;-68
2022/10/12 06:46:22;;;;;;;15.10;6.03;;;;;;;;;;5029561;28;20243;-69
2022/10/12 06:48:47;;;;;;;9.30;5.80;;;;;;;;;;5032514;28;20186;-69
2022/10/12 06:51:13;;;;;;;10.93;6.27;;;;;;;;;;5033392;28;20179;-69
2022/10/12 06:53:38;;;;;;;8.03;5.83;;;;;;;;;;5027844;28;20192;-69
2022/10/12 06:56:10;;;;;;;13.00;6.50;;;;;;;;;;5026109;28;20190;-69
2022/10/12 06:58:36;;;;;;;10.40;6.33;;;;;;;;;;5030883;28;20567;-69
2022/10/12 07:01:03;;;;;;;15.37;7.10;;;;;;;;;;5030270;28;20280;-69
2022/10/12 07:03:29;;;;;;;14.73;6.37;;;;;;;;;;5030838;28;20270;-69
2022/10/12 07:05:54;;;;;;;14.17;6.30;;;;;;;;;;5029665;28;20201;-69
2022/10/12 07:08:20;;;;;;;10.80;6.60;;;;;;;;;;5024891;28;20190;-69
2022/10/12 07:10:45;;;;;;;14.83;7.00;;;;;;;;;;5037859;28;20300;-69
2022/10/12 07:13:10;;;;;;;15.47;6.93;;;;;;;;;;5039147;28;20721;-69
2022/10/12 07:15:36;;;;;;;11.20;6.67;;;;;;;;;;5036134;28;20662;-69
2022/10/12 07:18:01;;;;;;;13.60;7.33;;;;;;;;;;5028958;28;20650;-69
2022/10/12 07:20:27;;;;;;;17.17;7.73;;;;;;;;;;5032310;28;20228;-69
2022/10/12 07:22:52;;;;;;;16.37;7.97;;;;;;;;;;5027553;28;20174;-69
2022/10/12 07:25:17;;;;;;;15.70;7.87;;;;;;;;;;5028664;28;20232;-69
2022/10/12 07:27:46;;;;;;;14.63;8.70;;;;;;;;;;5029423;28;20178;-69
2022/10/12 07:30:12;;;;;;;14.83;9.47;;;;;;;;;;5040723;28;20208;-69
2022/10/12 07:32:37;;;;;;;17.70;9.47;;;;;;;;;;5028118;28;20206;-69
2022/10/12 07:35:02;;;;;;;16.20;8.83;;;;;;;;;;5030591;28;20302;-69
2022/10/12 07:37:28;;;;;;;15.53;8.60;;;;;;;;;;5029090;28;20264;-69
2022/10/12 07:39:56;;;;;;;17.87;9.30;;;;;;;;;;5030363;28;20186;-69
2022/10/12 07:42:22;;;;;;;21.47;9.57;;;;;;;;;;5044900;28;20217;-69
2022/10/12 07:44:47;;;;;;;18.47;8.63;;;;;;;;;;5029369;28;20242;-69
2022/10/12 07:47:12;;;;;;;16.40;8.70;;;;;;;;;;5033328;28;20201;-69
2022/10/12 07:49:37;;;;;;;15.27;8.17;;;;;;;;;;5031487;28;20579;-69
2022/10/12 07:52:03;;;;;;;16.07;8.33;;;;;;;;;;5040838;28;20539;-69
2022/10/12 07:54:29;;;;;;;16.47;8.03;;;;;;;;;;5038211;28;20526;-69
2022/10/12 07:56:54;;;;;;;13.53;8.07;;;;;;;;;;5036743;28;20276;-69
2022/10/12 07:59:19;;;;;;;20.02;8.27;;;;;;;;;;5028754;28;20661;-69
2022/10/12 08:01:45;;;;;;;19.10;8.10;;;;;;;;;;5028245;28;20715;-69
2022/10/12 08:04:10;;;;;;;16.58;8.63;;;;;;;;;;5047595;28;20250;-69
2022/10/12 08:06:35;;;;;;;13.23;7.78;;;;;;;;;;5042087;28;20676;-69
2022/10/12 08:09:01;;;;;;;17.08;8.88;;;;;;;;;;5047077;28;20177;-69
2022/10/12 08:11:26;;;;;;;21.00;8.82;;;;;;;;;;5038988;28;20193;-70
2022/10/12 08:13:52;;;;;;;17.38;7.82;;;;;;;;;;5028799;28;20656;-70
2022/10/12 08:16:19;;;;;;;19.88;9.15;;;;;;;;;;5027797;28;20198;-70
2022/10/12 08:18:44;;;;;;;17.35;8.60;;;;;;;;;;5028313;28;20182;-69
2022/10/12 08:21:12;;;;;;;25.20;8.68;;;;;;;;;;5036895;28;20855;-69
2022/10/12 08:23:38;;;;;;;32.20;9.63;;;;;;;;;;5030230;28;20202;-69
2022/10/12 08:26:04;;;;;;;19.58;8.40;;;;;;;;;;5027154;28;20244;-69
2022/10/12 08:28:31;;;;;;;16.60;8.55;;;;;;;;;;5033440;28;20178;-69
2022/10/12 08:30:57;;;;;;;18.38;8.68;;;;;;;;;;5029423;28;20222;-69
2022/10/12 08:33:22;;;;;;;16.48;7.28;;;;;;;;;;5043310;28;20332;-69
2022/10/12 08:35:48;;;;;;;19.38;8.75;;;;;;;;;;5029672;28;20185;-69
2022/10/12 08:38:14;;;;;;;16.80;8.38;;;;;;;;;;5037744;28;20231;-69
2022/10/12 08:41:05;;;;;;;16.23;8.40;;;;;;;;;;5042418;28;20471;-69
2022/10/12 08:43:33;;;;;;;19.17;8.35;;;;;;;;;;5049463;28;20367;-69
2022/10/12 08:46:01;;;;;;;18.90;8.32;;;;;;;;;;5050015;28;20181;-69
2022/10/12 08:48:31;;;;;;;16.27;7.93;;;;;;;;;;5050854;28;20214;-69
2022/10/12 08:51:11;;;;;;;23.45;8.95;;;;;;;;;;5039058;28;20182;-69
2022/10/12 08:53:58;;;;;;;16.95;8.77;;;;;;;;;;5035009;28;20641;-69
2022/10/12 08:56:23;;;;;;;15.75;7.95;;;;;;;;;;5049372;28;20181;-69
2022/10/12 08:58:51;;;;;;;24.27;8.52;;;;;;;;;;5033478;28;20559;-69
2022/10/12 09:01:37;;;;;;;18.40;8.25;;;;;;;;;;5040397;28;20685;-69
2022/10/12 09:04:24;;;;;;;16.17;8.23;;;;;;;;;;5046309;28;20197;-69
2022/10/12 09:07:18;;;;;;;17.10;8.05;;;;;;;;;;5031603;28;20193;-69
2022/10/12 09:10:22;;;;;;;17.05;8.57;;;;;;;;;;5032073;28;20170;-69
2022/10/12 09:13:08;;;;;;;19.60;8.32;;;;;;;;;;5031397;28;20653;-69
2022/10/12 09:15:55;;;;;;;18.92;9.00;;;;;;;;;;5031136;28;20186;-69
2022/10/12 09:18:37;;;;;;;21.00;8.48;;;;;;;;;;5039617;28;20177;-69
2022/10/12 09:21:06;;;;;;;15.02;8.07;;;;;;;;;;5038972;28;20177;-69
2022/10/12 09:23:37;;;;;;;16.23;8.15;;;;;;;;;;5041968;28;20205;-69
2022/10/12 09:26:11;;;;;;;13.13;7.45;;;;;;;;;;5048534;28;20644;-69
2022/10/12 09:28:56;;;;;;;16.52;7.57;;;;;;;;;;5050688;28;20183;-69
2022/10/12 09:31:53;;;;;;;17.90;7.40;;;;;;;;;;5033107;28;20712;-68
2022/10/12 09:34:18;;;;;;;18.63;7.07;;;;;;;;;;5041056;28;20343;-68
2022/10/12 09:36:44;;;;;;;13.38;6.78;;;;;;;;;;5033151;28;20268;-69
2022/10/12 09:39:18;;;;;;;12.32;6.70;;;;;;;;;;5048749;28;20188;-68
2022/10/12 09:41:45;;;;;;;18.27;6.78;;;;;;;;;;5038041;28;20227;-68
2022/10/12 09:44:29;;;;;;;21.38;6.60;;;;;;;;;;5050609;28;20285;-68
2022/10/12 09:46:58;;;;;;;13.80;6.60;;;;;;;;;;5047488;28;20212;-68
2022/10/12 09:49:51;;;;;;;19.10;6.82;;;;;;;;;;5042845;28;20177;-68
2022/10/12 09:52:20;;;;;;;14.68;5.43;;;;;;;;;;5044288;28;20194;-68
2022/10/12 09:54:50;;;;;;;18.63;5.63;;;;;;;;;;5045736;28;20184;-68
2022/10/12 09:57:24;;;;;;;16.30;6.53;;;;;;;;;;5036254;28;20608;-68
2022/10/12 09:59:50;;;;;;;16.80;5.53;;;;;;;;;;5030286;28;20181;-68
2022/10/12 10:02:18;;;;;;;12.35;5.47;;;;;;;;;;5046796;28;20205;-68
2022/10/12 10:04:46;;;;;;;14.52;5.15;;;;;;;;;;5039872;28;20689;-68
2022/10/12 10:07:28;;;;;;;11.40;5.30;;;;;;;;;;5045493;28;20174;-68
2022/10/12 10:10:18;;;;;;;12.73;4.65;;;;;;;;;;5039244;28;20273;-68
2022/10/12 10:12:53;;;;;;;12.93;4.50;;;;;;;;;;5048351;28;20173;-68
2022/10/12 10:15:41;;;;;;;18.15;4.57;;;;;;;;;;5041733;28;20257;-68
2022/10/12 10:18:32;;;;;;;12.15;4.97;;;;;;;;;;5031027;28;20216;-68
2022/10/12 10:20:58;;;;;;;11.35;4.63;;;;;;;;;;5037258;28;20197;-67
2022/10/12 10:23:28;;;;;;;15.60;4.95;;;;;;;;;;5032502;28;20182;-68
2022/10/12 10:26:04;;;;;;;15.68;4.82;;;;;;;;;;5036160;28;20186;-68
2022/10/12 10:28:54;;;;;;;10.77;5.10;;;;;;;;;;5037818;28;20190;-68
2022/10/12 10:31:24;;;;;;;11.57;4.95;;;;;;;;;;5039760;28;20480;-68
2022/10/12 10:34:10;;;;;;;14.90;5.15;;;;;;;;;;5035750;28;20260;-68
2022/10/12 10:36:53;;;;;;;14.10;5.03;;;;;;;;;;5037504;28;20792;-67
2022/10/12 10:39:37;;;;;;;10.18;4.30;;;;;;;;;;5036375;28;20188;-68
2022/10/12 10:42:10;;;;;;;17.45;5.20;;;;;;;;;;5038106;28;20174;-68
2022/10/12 10:44:37;;;;;;;12.30;4.72;;;;;;;;;;5032517;28;20186;-67
2022/10/12 10:47:10;;;;;;;12.80;4.47;;;;;;;;;;5028259;28;20197;-67
2022/10/12 10:49:48;;;;;;;14.00;4.95;;;;;;;;;;5025516;28;20613;-68
2022/10/12 10:52:22;;;;;;;16.20;5.63;;;;;;;;;;5035407;28;20185;-67
2022/10/12 10:54:48;;;;;;;14.88;5.07;;;;;;;;;;5030283;28;20186;-67
2022/10/12 10:57:20;;;;;;;16.05;5.10;;;;;;;;;;5038388;28;20586;-67
2022/10/12 10:59:59;;;;;;;12.95;4.53;;;;;;;;;;5032235;28;20244;-69
2022/10/12 11:02:29;;;;;;;12.82;4.72;;;;;;;;;;5037658;28;20255;-68
2022/10/12 11:05:04;;;;;;;13.40;4.75;;;;;;;;;;5029803;28;20201;-69
2022/10/12 11:07:45;;;;;;;12.77;3.55;;;;;;;;;;5033833;28;20641;-68
2022/10/12 11:10:26;;;;;;;10.90;3.70;;;;;;;;;;5047825;28;20277;-68
2022/10/12 11:13:11;;;;;;;9.95;3.20;;;;;;;;;;5030588;28;20186;-68
2022/10/12 11:15:51;;;;;;;14.40;4.22;;;;;;;;;;5041909;28;20203;-68
2022/10/12 11:18:40;;;;;;;21.08;4.65;;;;;;;;;;5037609;28;20306;-68
2022/10/12 11:21:14;;;;;;;11.52;3.78;;;;;;;;;;5041989;28;20600;-68
2022/10/12 11:24:07;;;;;;;8.68;3.70;;;;;;;;;;5028327;28;20213;-68
2022/10/12 11:26:54;;;;;;;13.63;3.92;;;;;;;;;;5017367;28;20213;-68
2022/10/12 11:29:19;;;;;;;9.15;3.42;;;;;;;;;;5040533;28;20196;-68
2022/10/12 11:32:02;;;;;;;14.10;4.07;;;;;;;;;;5033133;28;20695;-68
2022/10/12 11:34:32;;;;;;;10.68;3.50;;;;;;;;;;5034734;28;20653;-68
2022/10/12 11:36:58;;;;;;;11.45;3.90;;;;;;;;;;5045871;28;20637;-68
2022/10/12 11:39:33;;;;;;;12.35;3.85;;;;;;;;;;5035917;28;20235;-68
2022/10/12 11:42:01;;;;;;;13.27;3.92;;;;;;;;;;5031977;28;20185;-68
2022/10/12 11:44:38;;;;;;;14.65;5.07;;;;;;;;;;5045230;28;20312;-68
2022/10/12 11:47:18;;;;;;;17.00;4.82;;;;;;;;;;5036078;28;20695;-68
2022/10/12 11:49:47;;;;;;;14.25;4.28;;;;;;;;;;5043190;28;20182;-68
2022/10/12 11:52:13;;;;;;;9.93;4.10;;;;;;;;;;5046922;28;20181;-68
2022/10/12 11:55:14;;;;;;;11.98;4.10;;;;;;;;;;5032366;28;20193;-68
2022/10/12 11:57:39;;;;;;;11.90;4.30;;;;;;;;;;5023297;28;20706;-68
2022/10/12 12:00:36;;;;;;;9.90;3.20;;;;;;;;;;5041338;28;20190;-68
2022/10/12 12:03:25;;;;;;;13.82;5.40;;;;;;;;;;5026742;28;20301;-68
2022/10/12 12:05:50;;;;;;;13.40;3.95;;;;;;;;;;5035232;28;20669;-68
2022/10/12 12:08:42;;;;;;;12.15;4.10;;;;;;;;;;5041673;28;20236;-68
2022/10/12 12:11:23;;;;;;;12.88;4.10;;;;;;;;;;5030357;28;20262;-68
2022/10/12 12:13:48;;;;;;;8.25;3.70;;;;;;;;;;5037836;28;20182;-68
2022/10/12 12:16:16;;;;;;;13.05;4.90;;;;;;;;;;5048770;28;20177;-68
2022/10/12 12:19:12;;;;;;;14.02;4.35;;;;;;;;;;5039158;28;20579;-68
2022/10/12 12:22:09;;;;;;;10.20;3.58;;;;;;;;;;5040851;28;20211;-68
2022/10/12 12:24:35;;;;;;;13.15;5.30;;;;;;;;;;5036896;28;20276;-68
2022/10/12 12:27:00;;;;;;;13.30;4.53;;;;;;;;;;5035371;28;20272;-68
2022/10/12 12:29:27;;;;;;;13.98;4.80;;;;;;;;;;5039825;28;20189;-68
2022/10/12 12:31:55;;;;;;;16.35;4.93;;;;;;;;;;5050588;28;20233;-68
2022/10/12 12:34:21;;;;;;;11.40;4.15;;;;;;;;;;5040788;28;20221;-68
2022/10/12 12:36:49;;;;;;;8.48;3.83;;;;;;;;;;5048606;28;20231;-68
2022/10/12 12:39:25;;;;;;;12.07;4.40;;;;;;;;;;5050313;28;20315;-68
2022/10/12 12:41:54;;;;;;;6.20;3.03;;;;;;;;;;5041123;28;20231;-69
2022/10/12 12:44:32;;;;;;;12.35;4.15;;;;;;;;;;5043193;28;20193;-68
2022/10/12 12:47:00;;;;;;;15.30;4.43;;;;;;;;;;5049087;28;20649;-68
2022/10/12 12:49:49;;;;;;;10.95;4.10;;;;;;;;;;5040079;28;20182;-68
2022/10/12 12:52:18;;;;;;;10.27;3.90;;;;;;;;;;5039632;28;20567;-68
2022/10/12 12:54:55;;;;;;;10.32;3.70;;;;;;;;;;5043953;28;20195;-68
2022/10/12 12:57:40;;;;;;;10.30;3.08;;;;;;;;;;5031142;28;20186;-68
2022/10/12 13:00:24;;;;;;;10.68;3.30;;;;;;;;;;5035186;28;20556;-69
2022/10/12 13:03:02;;;;;;;11.15;3.47;;;;;;;;;;5039685;28;20181;-69
2022/10/12 13:05:42;;;;;;;12.63;3.80;;;;;;;;;;5037180;28;20233;-68
2022/10/12 13:08:37;;;;;;;10.32;3.17;;;;;;;;;;5050032;28;20189;-68
2022/10/12 13:11:02;;;;;;;13.10;3.00;;;;;;;;;;5049465;28;20637;-68
2022/10/12 13:13:48;;;;;;;11.63;3.08;;;;;;;;;;5031177;28;20201;-68
2022/10/12 13:16:51;;;;;;;11.43;3.00;;;;;;;;;;5044990;28;20311;-68
2022/10/12 13:19:18;;;;;;;8.13;2.88;;;;;;;;;;5036591;28;20196;-68
2022/10/12 13:21:46;;;;;;;9.93;3.15;;;;;;;;;;5041317;28;20173;-68
2022/10/12 13:24:16;;;;;;;11.63;3.00;;;;;;;;;;5043144;28;20189;-68
2022/10/12 13:26:45;;;;;;;10.02;3.22;;;;;;;;;;5038509;28;20616;-68
2022/10/12 13:29:31;;;;;;;11.32;3.22;;;;;;;;;;5036325;28;20186;-68
2022/10/12 13:31:59;;;;;;;9.68;2.95;;;;;;;;;;5037100;28;20311;-68
2022/10/12 13:34:39;;;;;;;10.48;2.97;;;;;;;;;;5038369;28;20182;-68
2022/10/12 13:37:11;;;;;;;7.32;2.50;;;;;;;;;;5040261;28;20185;-68
2022/10/12 13:39:42;;;;;;;8.05;2.97;;;;;;;;;;5036772;28;20201;-68
2022/10/12 13:42:11;;;;;;;12.50;2.75;;;;;;;;;;5035483;28;20178;-69
2022/10/12 13:44:37;;;;;;;16.23;2.72;;;;;;;;;;5039175;28;20691;-68
2022/10/12 13:47:23;;;;;;;12.52;2.97;;;;;;;;;;5044385;28;20265;-68
2022/10/12 13:49:49;;;;;;;10.07;2.55;;;;;;;;;;5035666;28;20186;-68
2022/10/12 13:52:29;;;;;;;9.02;2.45;;;;;;;;;;5044412;28;20177;-68
2022/10/12 13:54:55;;;;;;;10.13;2.60;;;;;;;;;;5042956;28;20196;-68
2022/10/12 13:57:28;;;;;;;9.98;1.90;;;;;;;;;;5034966;28;20194;-68
2022/10/12 13:59:57;;;;;;;7.22;2.47;;;;;;;;;;5038764;28;20264;-68
2022/10/12 14:02:25;;;;;;;11.43;2.40;;;;;;;;;;5033842;28;20181;-68
2022/10/12 14:05:01;;;;;;;9.88;2.90;;;;;;;;;;5047313;28;20193;-68
2022/10/12 14:07:34;;;;;;;8.90;2.38;;;;;;;;;;5036484;28;20193;-67
2022/10/12 14:10:07;;;;;;;10.05;2.75;;;;;;;;;;5031620;28;20193;-67
2022/10/12 14:12:35;;;;;;;9.10;2.45;;;;;;;;;;5035539;28;20170;-67
2022/10/12 14:15:01;;;;;;;6.53;2.67;;;;;;;;;;5032242;28;20198;-67
2022/10/12 14:17:27;;;;;;;6.57;2.13;;;;;;;;;;5031553;28;20189;-67
2022/10/12 14:19:54;;;;;;;10.98;2.53;;;;;;;;;;5033417;28;20185;-67
2022/10/12 14:22:23;;;;;;;9.35;2.38;;;;;;;;;;5031501;28;20193;-67
2022/10/12 14:24:53;;;;;;;8.48;2.97;;;;;;;;;;5030572;28;20653;-67
2022/10/12 14:27:27;;;;;;;6.93;2.22;;;;;;;;;;5030217;28;20183;-67
2022/10/12 14:29:55;;;;;;;10.18;2.55;;;;;;;;;;5039656;28;20189;-67
2022/10/12 14:32:21;;;;;;;12.00;2.67;;;;;;;;;;5039281;28;20233;-67
2022/10/12 14:34:48;;;;;;;11.60;2.60;;;;;;;;;;5036328;28;20190;-67
2022/10/12 14:37:13;;;;;;;10.73;2.17;;;;;;;;;;5038569;28;20676;-67
2022/10/12 14:39:43;;;;;;;8.32;2.30;;;;;;;;;;5042441;28;20189;-67
2022/10/12 14:42:31;;;;;;;9.90;2.40;;;;;;;;;;5032085;28;20187;-67
2022/10/12 14:44:56;;;;;;;9.48;2.30;;;;;;;;;;4333590;28;10000737;-67
2022/10/12 14:47:25;;;;;;;10.88;2.38;;;;;;;;;;5042824;28;20200;-67
2022/10/12 14:49:54;;;;;;;6.20;2.10;;;;;;;;;;5039688;28;20186;-67
2022/10/12 14:52:23;;;;;;;10.57;2.60;;;;;;;;;;5039222;28;20652;-67
2022/10/12 14:54:56;;;;;;;9.55;2.55;;;;;;;;;;5024253;28;20673;-67